Time;durP1;ratioP1;P1;durP2;ratioP2;P2;SDS_P1;SDS_P2;PMS_P1;PMS_P2;Temp;Humidity;BMP_temperature;BMP_pressure;BME280_temperature;BME280_humidity;BME280_pressure;Samples;Min_cycle;Max_cycle;Signal;HPM_P1;HPM_P2
2023/01/10 00:01:35;;;;;;;3.35;1.45;;;;;;;5.00;86.96;97651.72;4980477;28;20059;-82
2023/01/10 00:04:01;;;;;;;4.15;1.30;;;;;;;5.08;87.20;97656.81;4981845;28;20084;-82
2023/01/10 00:06:26;;;;;;;6.88;1.73;;;;;;;5.05;86.93;97659.00;4978841;28;20034;-82
2023/01/10 00:08:52;;;;;;;2.60;1.50;;;;;;;5.12;86.92;97653.88;4979469;28;20064;-82
2023/01/10 00:14:01;;;;;;;2.60;1.10;;;;;;;5.21;86.67;97648.44;4979757;28;20654;-82
2023/01/10 00:16:27;;;;;;;1.40;1.30;;;;;;;5.09;86.61;97650.63;4981093;28;20034;-82
2023/01/10 00:18:52;;;;;;;4.10;1.50;;;;;;;5.17;87.09;97661.97;4980961;28;20037;-82
2023/01/10 00:21:18;;;;;;;1.63;1.38;;;;;;;5.23;86.64;97676.88;4977988;28;20035;-82
2023/01/10 00:23:43;;;;;;;2.55;1.30;;;;;;;5.28;86.61;97677.16;4979502;28;20035;-82
2023/01/10 00:26:10;;;;;;;2.33;1.40;;;;;;;5.22;86.34;97677.88;4978992;28;20034;-82
2023/01/10 00:28:38;;;;;;;2.70;1.35;;;;;;;5.25;86.35;97677.50;4979118;28;20092;-82
2023/01/10 00:31:05;;;;;;;3.15;1.38;;;;;;;5.28;85.89;97690.16;4977402;28;20042;-82
2023/01/10 00:33:33;;;;;;;1.90;1.45;;;;;;;5.20;86.18;97700.59;4978673;28;20058;-82
2023/01/10 00:36:04;;;;;;;1.63;1.30;;;;;;;5.20;86.64;97691.00;4974724;28;20061;-82
2023/01/10 00:38:34;;;;;;;3.25;1.27;;;;;;;5.30;86.53;97698.59;4976274;28;20117;-82
2023/01/10 00:41:01;;;;;;;1.60;1.20;;;;;;;5.25;86.00;97685.28;4984334;28;20165;-82
2023/01/10 00:46:11;;;;;;;1.73;1.38;;;;;;;5.35;86.06;97712.69;4980667;28;20657;-81
2023/01/10 00:48:37;;;;;;;3.15;1.50;;;;;;;5.26;86.28;97712.91;4980967;28;20038;-82
2023/01/10 00:51:04;;;;;;;2.08;1.40;;;;;;;5.27;86.34;97714.53;4978610;28;20046;-82
2023/01/10 00:53:29;;;;;;;2.72;1.50;;;;;;;5.30;86.24;97715.00;4980731;28;20074;-82
2023/01/10 00:55:56;;;;;;;7.90;2.20;;;;;;;5.24;85.96;97725.28;4981303;28;20054;-82
2023/01/10 00:58:22;;;;;;;1.90;1.70;;;;;;;5.18;86.26;97718.19;4979674;28;20528;-82
2023/01/10 01:00:48;;;;;;;2.03;1.83;;;;;;;5.24;86.44;97720.91;4979746;28;20034;-82
2023/01/10 01:03:16;;;;;;;2.45;1.70;;;;;;;5.20;86.46;97729.22;4980484;28;20069;-82
2023/01/10 01:05:43;;;;;;;2.13;1.50;;;;;;;5.23;86.59;97732.28;4981440;28;20099;-82
2023/01/10 01:08:11;;;;;;;3.35;1.60;;;;;;;5.17;86.51;97732.16;4979464;28;20045;-82
2023/01/10 01:10:37;;;;;;;3.22;2.03;;;;;;;5.13;86.87;97743.88;4980189;28;20538;-82
2023/01/10 01:13:17;;;;;;;3.50;1.73;;;;;;;5.13;86.88;97744.69;4978675;28;20031;-82
2023/01/10 01:15:43;;;;;;;2.63;1.80;;;;;;;5.10;87.22;97756.25;4977808;28;20035;-82
2023/01/10 01:18:12;;;;;;;3.65;1.75;;;;;;;5.02;87.15;97738.09;4978893;28;20274;-82
2023/01/10 01:20:40;;;;;;;3.35;1.90;;;;;;;5.10;87.30;97758.06;4978094;28;20541;-81
2023/01/10 01:23:06;;;;;;;2.20;2.00;;;;;;;5.10;87.45;97758.06;4979787;28;20034;-82
2023/01/10 01:25:31;;;;;;;3.65;2.08;;;;;;;5.09;87.58;97767.63;4976488;28;20094;-82
2023/01/10 01:27:57;;;;;;;3.10;2.55;;;;;;;5.08;87.95;97778.19;4978639;28;20045;-81
2023/01/10 01:30:23;;;;;;;4.40;2.80;;;;;;;5.06;88.13;97778.38;4977511;28;20038;-82
2023/01/10 01:32:48;;;;;;;3.17;1.98;;;;;;;5.13;88.56;97785.47;4977833;28;20474;-82
2023/01/10 01:35:15;;;;;;;4.00;2.58;;;;;;;5.06;88.33;97790.56;4975108;28;20052;-82
2023/01/10 01:37:42;;;;;;;4.32;2.95;;;;;;;5.06;88.38;97791.38;4977907;28;20038;-82
2023/01/10 01:40:26;;;;;;;3.63;3.25;;;;;;;5.08;88.39;97805.00;4984792;28;20053;-82
2023/01/10 01:42:54;;;;;;;2.42;2.13;;;;;;;5.10;88.69;97807.44;4983299;28;20045;-82
2023/01/10 01:45:22;;;;;;;5.82;3.30;;;;;;;5.10;88.75;97815.25;4984882;28;20046;-82
2023/01/10 01:48:19;;;;;;;4.13;3.63;;;;;;;5.04;88.79;97814.13;4980141;28;20039;-82
2023/01/10 01:50:55;;;;;;;5.13;3.55;;;;;;;5.04;89.03;97819.34;4984639;28;20057;-82
2023/01/10 01:53:36;;;;;;;3.97;3.60;;;;;;;5.02;89.00;97826.47;4982170;28;20066;-82
2023/01/10 01:56:20;;;;;;;4.25;3.70;;;;;;;5.03;89.34;97820.28;4985021;28;20125;-82
2023/01/10 01:58:58;;;;;;;4.57;3.70;;;;;;;5.00;89.24;97822.44;4984162;28;20601;-82
2023/01/10 02:01:26;;;;;;;4.20;3.80;;;;;;;5.05;89.25;97822.75;4983455;28;20133;-82
2023/01/10 02:04:05;;;;;;;4.88;3.30;;;;;;;4.97;89.34;97813.19;4981761;28;20109;-82
2023/01/10 02:06:30;;;;;;;3.58;3.25;;;;;;;5.02;89.38;97823.88;4982135;28;20046;-82
2023/01/10 02:09:17;;;;;;;6.50;3.50;;;;;;;4.98;89.38;97820.03;4982345;28;20030;-82
2023/01/10 02:11:43;;;;;;;3.45;2.88;;;;;;;5.04;89.33;97832.34;4980952;28;20042;-82
2023/01/10 02:14:11;;;;;;;4.05;3.20;;;;;;;5.07;88.95;97837.19;4980600;28;20035;-82
2023/01/10 02:16:37;;;;;;;3.38;3.08;;;;;;;5.09;89.02;97840.41;4990097;28;20026;-82
2023/01/10 02:19:16;;;;;;;3.50;3.20;;;;;;;5.07;89.10;97842.38;4983292;28;20038;-82
2023/01/10 02:22:12;;;;;;;4.35;3.28;;;;;;;5.09;89.54;97839.59;4986276;28;20041;-82
2023/01/10 02:24:43;;;;;;;3.20;2.70;;;;;;;5.12;89.22;97847.06;4981005;28;20109;-82
2023/01/10 02:27:21;;;;;;;3.63;2.83;;;;;;;5.07;89.02;97846.78;4981563;28;20041;-82
2023/01/10 02:30:32;;;;;;;3.30;2.85;;;;;;;5.08;89.12;97846.59;4983406;28;20107;-82
2023/01/10 02:33:23;;;;;;;2.92;2.47;;;;;;;5.09;88.93;97845.59;4980381;28;20030;-81
2023/01/10 02:36:27;;;;;;;3.45;2.55;;;;;;;5.09;89.38;97863.81;4976240;28;20034;-81
2023/01/10 02:39:04;;;;;;;2.50;2.30;;;;;;;5.07;89.10;97867.56;4984699;28;20121;-82
2023/01/10 02:41:49;;;;;;;3.40;2.58;;;;;;;5.03;89.15;97868.88;4986426;28;20093;-82
2023/01/10 02:44:39;;;;;;;3.47;2.60;;;;;;;5.04;88.94;97867.91;4983215;28;20402;-82
2023/01/10 02:47:08;;;;;;;3.38;3.08;;;;;;;5.07;89.16;97881.38;4983332;28;20026;-82
2023/01/10 02:49:46;;;;;;;2.90;2.60;;;;;;;5.06;89.33;97869.34;4982820;28;20062;-82
2023/01/10 02:52:23;;;;;;;2.70;2.42;;;;;;;5.10;89.27;97881.03;4983286;28;20938;-82
2023/01/10 02:54:57;;;;;;;2.78;2.40;;;;;;;5.15;89.26;97884.91;4983444;28;20601;-82
2023/01/10 02:57:44;;;;;;;3.50;2.67;;;;;;;5.15;89.46;97885.72;4984950;28;20122;-82
2023/01/10 03:00:56;;;;;;;4.57;3.35;;;;;;;5.10;89.57;97896.63;4980595;28;20449;-82
2023/01/10 03:04:00;;;;;;;3.28;2.90;;;;;;;5.12;89.64;97887.84;4996172;28;20102;-82
2023/01/10 03:06:42;;;;;;;3.15;2.33;;;;;;;5.10;89.73;97894.03;4986237;28;20046;-82
2023/01/10 03:09:32;;;;;;;4.18;2.67;;;;;;;5.12;90.34;97903.47;4981916;28;20041;-82
2023/01/10 03:12:20;;;;;;;3.13;2.83;;;;;;;5.08;90.25;97903.78;4980263;28;20030;-81
2023/01/10 03:14:48;;;;;;;3.22;2.90;;;;;;;5.13;90.65;97911.06;4996301;28;20043;-82
2023/01/10 03:17:17;;;;;;;4.22;2.95;;;;;;;5.13;90.28;97910.28;4980915;28;20053;-82
2023/01/10 03:19:50;;;;;;;4.28;2.78;;;;;;;5.14;90.51;97919.69;4980196;28;20080;-82
2023/01/10 03:22:17;;;;;;;4.10;2.70;;;;;;;5.12;90.42;97914.66;4979659;28;20031;-82
2023/01/10 03:24:48;;;;;;;4.18;2.75;;;;;;;5.15;90.71;97921.31;4978780;28;20474;-82
2023/01/10 03:27:37;;;;;;;3.67;2.38;;;;;;;5.19;90.74;97935.59;4978581;28;20375;-82
2023/01/10 03:30:22;;;;;;;3.05;2.75;;;;;;;5.17;90.39;97929.75;4978559;28;20026;-82
2023/01/10 03:32:48;;;;;;;3.03;2.72;;;;;;;5.16;90.38;97928.13;4978853;28;20043;-82
2023/01/10 03:35:15;;;;;;;3.33;2.85;;;;;;;5.15;90.62;97945.50;4978564;28;20038;-82
2023/01/10 03:37:57;;;;;;;3.20;2.90;;;;;;;5.12;90.60;97947.66;4982228;28;20042;-82
2023/01/10 03:40:48;;;;;;;3.88;2.40;;;;;;;5.19;90.79;97966.78;4981086;28;20085;-82
2023/01/10 03:46:31;;;;;;;;;;;;;;;5.25;90.60;97971.31;4982750;28;20088;-82
2023/01/10 03:48:58;;;;;;;3.58;2.65;;;;;;;5.21;90.33;97985.63;4984042;28;19928;-82
2023/01/10 03:51:26;;;;;;;4.00;2.55;;;;;;;5.23;90.65;97986.28;4980803;28;20065;-82
2023/01/10 03:53:52;;;;;;;4.97;2.65;;;;;;;5.21;90.58;97993.41;4982088;28;20034;-82
2023/01/10 03:56:17;;;;;;;3.63;2.80;;;;;;;5.18;90.57;97986.78;4981425;28;20050;-82
2023/01/10 03:58:43;;;;;;;3.17;2.72;;;;;;;5.21;90.52;97994.22;4979993;28;20068;-82
2023/01/10 04:01:09;;;;;;;3.50;2.60;;;;;;;5.18;90.51;98001.56;4979391;28;20038;-82
2023/01/10 04:03:34;;;;;;;4.30;2.95;;;;;;;5.10;90.32;97995.44;4980871;28;20046;-82
2023/01/10 04:06:00;;;;;;;4.40;3.05;;;;;;;5.12;90.90;98010.03;4979156;28;20049;-82
2023/01/10 04:08:25;;;;;;;3.25;2.58;;;;;;;5.10;91.02;98011.03;4979343;28;20042;-81
2023/01/10 04:10:50;;;;;;;4.57;3.10;;;;;;;5.10;91.22;98015.41;4980224;28;20730;-83
2023/01/10 04:13:16;;;;;;;4.15;2.80;;;;;;;5.13;91.35;98027.25;4979830;28;20351;-82
2023/01/10 04:15:41;;;;;;;2.83;2.53;;;;;;;5.13;91.43;98041.06;4977297;28;20066;-82
2023/01/10 04:18:07;;;;;;;3.55;2.88;;;;;;;5.18;91.54;98041.38;4978577;28;20137;-82
2023/01/10 04:20:32;;;;;;;5.35;2.83;;;;;;;5.17;91.42;98042.38;4984356;28;20122;-82
2023/01/10 04:22:58;;;;;;;3.83;3.38;;;;;;;5.09;91.17;98042.38;4978396;28;20043;-82
2023/01/10 04:25:23;;;;;;;5.25;2.97;;;;;;;5.14;91.35;98044.47;4977051;28;20039;-82
2023/01/10 04:27:51;;;;;;;3.55;2.47;;;;;;;5.16;91.06;98052.91;4979342;28;20041;-82
2023/01/10 04:30:18;;;;;;;4.20;3.80;;;;;;;5.10;91.07;98055.22;4977739;28;20049;-82
2023/01/10 04:32:45;;;;;;;4.78;3.40;;;;;;;5.12;91.26;98065.44;4979450;28;20407;-81
2023/01/10 04:35:10;;;;;;;4.63;2.92;;;;;;;5.07;90.67;98063.34;4983698;28;20126;-82
2023/01/10 04:37:36;;;;;;;5.60;3.17;;;;;;;5.08;90.45;98075.34;4982597;28;20113;-82
2023/01/10 04:40:03;;;;;;;3.83;2.83;;;;;;;5.09;90.48;98079.56;4983762;28;20038;-82
2023/01/10 04:42:28;;;;;;;4.47;3.22;;;;;;;5.08;91.00;98075.34;4982851;28;20038;-82
2023/01/10 04:44:54;;;;;;;3.53;2.83;;;;;;;5.16;90.39;98092.75;4979006;28;20041;-82
2023/01/10 04:47:19;;;;;;;3.88;2.80;;;;;;;5.20;90.17;98096.63;4981881;28;20174;-82
2023/01/10 04:49:45;;;;;;;4.68;3.10;;;;;;;5.21;90.04;98100.03;4980476;28;20117;-82
2023/01/10 04:52:10;;;;;;;3.15;2.80;;;;;;;5.16;90.01;98102.31;4980231;28;20122;-82
2023/01/10 04:54:36;;;;;;;3.22;2.70;;;;;;;5.16;89.83;98102.31;4980362;28;20041;-82
2023/01/10 04:57:01;;;;;;;3.65;2.88;;;;;;;5.15;89.84;98105.91;4980234;28;20066;-80
2023/01/10 04:59:27;;;;;;;3.75;2.90;;;;;;;5.22;89.74;98123.28;4981491;28;20157;-82
2023/01/10 05:01:52;;;;;;;3.72;2.95;;;;;;;5.21;89.44;98106.03;4978058;28;20054;-82
2023/01/10 05:04:18;;;;;;;3.55;2.78;;;;;;;5.18;89.03;98111.59;4980947;28;20042;-82
2023/01/10 05:06:43;;;;;;;3.80;2.30;;;;;;;5.28;88.89;98130.44;4978274;28;20039;-82
2023/01/10 05:09:09;;;;;;;3.83;3.30;;;;;;;5.20;88.64;98133.03;4978301;28;20518;-82
2023/01/10 05:11:34;;;;;;;3.55;2.88;;;;;;;5.25;88.62;98133.34;4980102;28;20046;-82
2023/01/10 05:14:00;;;;;;;4.65;3.05;;;;;;;5.25;88.71;98138.56;4975327;28;20113;-82
2023/01/10 05:16:27;;;;;;;4.68;2.40;;;;;;;5.32;88.45;98146.50;4975438;28;20041;-82
2023/01/10 05:18:52;;;;;;;3.88;2.70;;;;;;;5.24;88.39;98146.53;4977643;28;20065;-82
2023/01/10 05:21:18;;;;;;;3.15;2.60;;;;;;;5.35;88.23;98167.81;4979049;28;20078;-82
2023/01/10 05:23:43;;;;;;;5.18;2.97;;;;;;;5.29;88.03;98165.06;4977119;28;20031;-81
2023/01/10 05:26:13;;;;;;;3.88;2.63;;;;;;;5.30;88.09;98182.28;4978914;28;20490;-82
2023/01/10 05:28:38;;;;;;;3.50;2.83;;;;;;;5.33;88.03;98171.53;4977185;28;20039;-82
2023/01/10 05:31:06;;;;;;;4.75;2.22;;;;;;;5.32;87.40;98180.31;4978728;28;20394;-82
2023/01/10 05:33:32;;;;;;;3.47;2.90;;;;;;;5.31;86.88;98178.69;4982341;28;20073;-82
2023/01/10 05:36:01;;;;;;;3.97;2.60;;;;;;;5.34;87.43;98184.38;4977639;28;20520;-82
2023/01/10 05:38:29;;;;;;;5.65;2.50;;;;;;;5.30;86.98;98187.47;4981111;28;20518;-82
2023/01/10 05:40:56;;;;;;;3.75;2.60;;;;;;;5.33;87.16;98194.94;4978910;28;20736;-82
2023/01/10 05:43:23;;;;;;;5.22;3.08;;;;;;;5.36;86.95;98207.63;4981383;28;20026;-82
2023/01/10 05:45:50;;;;;;;4.93;2.47;;;;;;;5.36;86.39;98198.03;4979637;28;20085;-82
2023/01/10 05:48:16;;;;;;;4.60;2.75;;;;;;;5.35;86.09;98212.00;4977702;28;20039;-81
2023/01/10 05:50:41;;;;;;;4.88;2.60;;;;;;;5.35;85.85;98209.41;4979932;28;20089;-81
2023/01/10 05:53:07;;;;;;;5.80;2.60;;;;;;;5.40;85.35;98214.13;4979499;28;20407;-82
2023/01/10 05:55:33;;;;;;;3.90;2.80;;;;;;;5.42;85.16;98217.38;4979106;28;20041;-81
2023/01/10 05:57:59;;;;;;;3.25;2.33;;;;;;;5.48;85.05;98231.53;4979010;28;20041;-82
2023/01/10 06:00:25;;;;;;;5.70;2.85;;;;;;;5.46;84.41;98229.09;4981013;28;20034;-82
2023/01/10 06:02:54;;;;;;;4.57;2.70;;;;;;;5.47;84.51;98235.91;4978135;28;20050;-82
2023/01/10 06:05:20;;;;;;;3.65;2.60;;;;;;;5.44;84.34;98246.63;4978183;28;20108;-82
2023/01/10 06:07:46;;;;;;;5.30;2.85;;;;;;;5.47;84.23;98245.50;4979887;28;20049;-82
2023/01/10 06:10:11;;;;;;;3.03;2.67;;;;;;;5.40;84.49;98242.75;4982282;28;20046;-82
2023/01/10 06:12:40;;;;;;;3.88;2.50;;;;;;;5.47;84.26;98261.13;4963416;28;20030;-82
2023/01/10 06:15:08;;;;;;;3.05;2.53;;;;;;;5.46;84.40;98265.50;4978650;28;20043;-82
2023/01/10 06:17:33;;;;;;;3.78;2.50;;;;;;;5.39;84.17;98264.50;4974081;28;20045;-82
2023/01/10 06:19:59;;;;;;;4.30;2.80;;;;;;;5.40;84.69;98276.56;4976596;28;20058;-82
2023/01/10 06:22:25;;;;;;;3.50;2.50;;;;;;;5.32;84.23;98271.34;4976133;28;20032;-82
2023/01/10 06:24:51;;;;;;;4.18;2.38;;;;;;;5.32;84.17;98271.34;4978985;28;20042;-82
2023/01/10 06:27:16;;;;;;;4.05;2.50;;;;;;;5.34;84.34;98282.41;4989190;28;20026;-82
2023/01/10 06:29:42;;;;;;;4.20;2.83;;;;;;;5.29;84.54;98279.47;4981861;28;20046;-82
2023/01/10 06:32:07;;;;;;;3.17;2.38;;;;;;;5.17;84.08;98275.56;4986729;28;20034;-82
2023/01/10 06:34:33;;;;;;;3.38;2.25;;;;;;;5.28;84.49;98296.06;4983312;28;20053;-82
2023/01/10 06:36:58;;;;;;;4.15;2.45;;;;;;;5.18;84.30;98305.78;4984929;28;20065;-82
2023/01/10 06:39:24;;;;;;;5.63;2.42;;;;;;;5.20;84.95;98312.44;4981859;28;20121;-82
2023/01/10 06:41:49;;;;;;;4.18;2.92;;;;;;;5.22;84.78;98314.91;4982706;28;20031;-82
2023/01/10 06:44:15;;;;;;;4.57;2.38;;;;;;;5.13;84.66;98316.66;4982072;28;20034;-82
2023/01/10 06:46:40;;;;;;;3.72;2.58;;;;;;;5.16;84.64;98325.91;4983983;28;20177;-82
2023/01/10 06:49:06;;;;;;;5.53;2.72;;;;;;;5.21;84.58;98334.06;4981990;28;20061;-82
2023/01/10 06:51:31;;;;;;;2.90;2.20;;;;;;;5.26;84.81;98343.00;4977199;28;20042;-82
2023/01/10 06:53:57;;;;;;;3.72;2.38;;;;;;;5.27;84.36;98341.22;4980844;28;20487;-82
2023/01/10 06:56:22;;;;;;;4.38;2.13;;;;;;;5.21;84.35;98360.06;4981728;28;20158;-82
2023/01/10 06:58:49;;;;;;;3.90;2.35;;;;;;;5.12;84.87;98346.25;4982365;28;20073;-82
2023/01/10 07:01:18;;;;;;;3.08;2.10;;;;;;;5.14;84.82;98361.66;4998011;28;20482;-82
2023/01/10 07:03:44;;;;;;;4.22;2.25;;;;;;;5.14;84.98;98374.66;4970223;28;20027;-82
2023/01/10 07:06:11;;;;;;;5.22;2.30;;;;;;;5.15;85.55;98381.50;4977556;28;20042;-82
2023/01/10 07:08:43;;;;;;;4.15;2.50;;;;;;;5.09;85.81;98385.53;4979533;28;20069;-82
2023/01/10 07:11:11;;;;;;;3.60;2.67;;;;;;;5.07;85.51;98395.28;4979015;28;20037;-82
2023/01/10 07:13:36;;;;;;;3.92;2.20;;;;;;;5.03;85.52;98394.78;4978828;28;20046;-82
2023/01/10 07:16:07;;;;;;;6.85;3.00;;;;;;;5.01;85.49;98399.31;4978723;28;20038;-82
2023/01/10 07:18:34;;;;;;;5.00;2.67;;;;;;;5.00;85.18;98409.88;4976334;28;20069;-82
2023/01/10 07:21:00;;;;;;;4.43;2.47;;;;;;;5.01;85.71;98407.13;4976862;28;20065;-82
2023/01/10 07:23:26;;;;;;;5.60;2.47;;;;;;;4.93;85.51;98399.31;4981766;28;20532;-82
2023/01/10 07:25:51;;;;;;;6.60;3.13;;;;;;;4.88;85.51;98409.34;4978446;28;20046;-82
2023/01/10 07:28:17;;;;;;;3.83;2.88;;;;;;;4.89;85.46;98418.78;4981769;28;20121;-82
2023/01/10 07:30:43;;;;;;;8.52;3.35;;;;;;;4.92;85.40;98428.03;4979883;28;20221;-82
2023/01/10 07:33:08;;;;;;;5.45;2.10;;;;;;;4.98;85.68;98425.66;4978822;28;20066;-82
2023/01/10 07:35:33;;;;;;;5.40;2.50;;;;;;;4.93;85.23;98435.69;4977090;28;20050;-82
2023/01/10 07:38:00;;;;;;;4.80;2.25;;;;;;;4.96;85.33;98445.78;4981175;28;20030;-82
2023/01/10 07:40:26;;;;;;;3.72;2.63;;;;;;;5.01;85.27;98453.91;4981383;28;20116;-83
2023/01/10 07:43:00;;;;;;;5.65;2.60;;;;;;;5.02;84.98;98455.53;4981072;28;20066;-82
2023/01/10 07:45:26;;;;;;;6.60;3.45;;;;;;;4.98;84.91;98464.66;4979643;28;20860;-83
2023/01/10 07:47:57;;;;;;;3.50;2.20;;;;;;;4.98;85.08;98469.03;4980355;28;20034;-82
2023/01/10 07:50:23;;;;;;;6.03;2.20;;;;;;;4.99;85.41;98476.66;4983217;28;20042;-82
2023/01/10 07:52:48;;;;;;;4.82;2.55;;;;;;;5.03;85.72;98477.97;4980463;28;20049;-83
2023/01/10 07:55:14;;;;;;;4.93;2.13;;;;;;;5.10;85.42;98484.19;4976206;28;20043;-82
2023/01/10 07:57:39;;;;;;;5.90;2.47;;;;;;;5.01;85.21;98490.31;4978696;28;20065;-82
2023/01/10 08:00:05;;;;;;;1.95;1.75;;;;;;;4.95;85.54;98501.34;4977754;28;20923;-83
2023/01/10 08:02:31;;;;;;;4.60;2.15;;;;;;;4.97;85.84;98498.56;4977694;28;20043;-83
2023/01/10 08:04:56;;;;;;;5.32;2.25;;;;;;;4.92;85.63;98496.47;4972941;28;20054;-82
2023/01/10 08:07:22;;;;;;;4.10;2.33;;;;;;;4.93;85.94;98492.88;4981877;28;20053;-82
2023/01/10 08:09:47;;;;;;;4.75;2.30;;;;;;;4.98;85.77;98501.03;4979494;28;20124;-82
2023/01/10 08:12:13;;;;;;;5.65;2.88;;;;;;;4.96;85.67;98508.16;4980643;28;20038;-82
2023/01/10 08:14:38;;;;;;;6.57;2.40;;;;;;;5.00;85.57;98506.88;4977083;28;20490;-82
2023/01/10 08:17:04;;;;;;;2.85;2.20;;;;;;;4.96;85.34;98502.97;4987797;28;20050;-82
2023/01/10 08:19:29;;;;;;;6.20;3.00;;;;;;;4.98;85.17;98502.81;4979373;28;20030;-82
2023/01/10 08:21:55;;;;;;;7.03;2.72;;;;;;;5.04;85.63;98505.63;4981248;28;20031;-83
2023/01/10 08:24:20;;;;;;;3.70;2.50;;;;;;;5.02;84.92;98502.34;4979672;28;20105;-82
2023/01/10 08:26:46;;;;;;;6.97;2.50;;;;;;;5.06;85.20;98503.66;4978705;28;20054;-82
2023/01/10 08:29:11;;;;;;;6.47;2.40;;;;;;;5.16;84.93;98515.72;4980854;28;20686;-82
2023/01/10 08:31:40;;;;;;;7.32;2.65;;;;;;;5.12;84.57;98520.44;4975659;28;20395;-82
2023/01/10 08:34:05;;;;;;;7.15;2.63;;;;;;;5.10;84.36;98531.00;4979876;28;20038;-82
2023/01/10 08:36:30;;;;;;;3.38;2.08;;;;;;;5.14;84.80;98531.50;4976287;28;20074;-82
2023/01/10 08:38:56;;;;;;;5.47;2.30;;;;;;;5.16;84.38;98539.13;4981009;28;20038;-82
2023/01/10 08:41:21;;;;;;;6.05;2.63;;;;;;;5.24;84.57;98552.19;4979067;28;20070;-82
2023/01/10 08:43:51;;;;;;;4.78;2.30;;;;;;;5.19;84.51;98549.25;4981162;28;20393;-82
2023/01/10 08:46:19;;;;;;;6.90;2.15;;;;;;;5.28;84.75;98548.31;4979076;28;20038;-83
2023/01/10 08:48:44;;;;;;;5.78;2.03;;;;;;;5.25;84.23;98543.41;4980048;28;20038;-82
2023/01/10 08:51:10;;;;;;;6.32;2.13;;;;;;;5.28;84.34;98527.53;4980816;28;20045;-82
2023/01/10 08:53:38;;;;;;;5.82;2.10;;;;;;;5.30;83.53;98547.19;4982021;28;20376;-82
2023/01/10 08:56:05;;;;;;;4.03;2.13;;;;;;;5.34;83.79;98548.53;4978683;28;20043;-82
2023/01/10 08:58:30;;;;;;;5.07;2.10;;;;;;;5.37;83.56;98550.78;4979521;28;20061;-82
2023/01/10 09:00:56;;;;;;;3.00;2.33;;;;;;;5.48;83.69;98569.72;4976677;28;20534;-82
2023/01/10 09:03:21;;;;;;;8.07;3.25;;;;;;;5.40;83.39;98565.28;4976953;28;20071;-83
2023/01/10 09:05:47;;;;;;;5.97;2.28;;;;;;;5.47;83.30;98573.28;4973443;28;20093;-83
2023/01/10 09:08:12;;;;;;;3.08;2.30;;;;;;;5.42;83.08;98580.75;4976547;28;20143;-82
2023/01/10 09:10:38;;;;;;;4.88;2.63;;;;;;;5.44;83.40;98579.59;4977294;28;20398;-82
2023/01/10 09:13:04;;;;;;;7.45;2.65;;;;;;;5.46;83.26;98589.84;4976307;28;20030;-82
2023/01/10 09:15:37;;;;;;;7.10;2.92;;;;;;;5.43;83.14;98597.97;4977533;28;20030;-82
2023/01/10 09:18:06;;;;;;;7.65;2.83;;;;;;;5.37;82.63;98599.41;4975495;28;20046;-82
2023/01/10 09:20:36;;;;;;;7.97;3.10;;;;;;;5.38;82.63;98611.44;4980608;28;20043;-82
2023/01/10 09:23:12;;;;;;;4.30;2.40;;;;;;;5.41;82.93;98618.13;4977903;28;20737;-82
2023/01/10 09:25:38;;;;;;;7.20;3.22;;;;;;;5.34;82.94;98620.53;4978770;28;20121;-82
2023/01/10 09:28:05;;;;;;;3.25;2.22;;;;;;;5.40;82.68;98616.47;4983415;28;20704;-82
2023/01/10 09:30:32;;;;;;;7.45;2.72;;;;;;;5.43;82.01;98614.41;4993059;28;20045;-83
2023/01/10 09:32:58;;;;;;;2.50;2.28;;;;;;;5.43;82.10;98622.19;4977783;28;20304;-82
2023/01/10 09:35:26;;;;;;;6.47;2.70;;;;;;;5.53;82.20;98628.13;4975664;28;20054;-82
2023/01/10 09:37:57;;;;;;;6.45;2.95;;;;;;;5.46;82.40;98639.28;4980700;28;20082;-82
2023/01/10 09:40:45;;;;;;;5.30;2.97;;;;;;;5.31;82.29;98607.81;4977212;28;20439;-83
2023/01/10 09:43:55;;;;;;;6.47;3.00;;;;;;;5.45;82.44;98628.06;4978786;28;20053;-83
2023/01/10 09:46:36;;;;;;;7.93;3.55;;;;;;;5.37;81.97;98635.81;4977431;28;20370;-84
2023/01/10 09:49:49;;;;;;;9.37;3.00;;;;;;;5.44;82.04;98644.63;4976849;28;20035;-82
2023/01/10 09:52:29;;;;;;;6.63;2.88;;;;;;;5.55;82.38;98633.97;4997044;28;20332;-82
2023/01/10 09:54:59;;;;;;;6.82;2.72;;;;;;;5.68;81.94;98617.13;4977167;28;20515;-82
2023/01/10 09:57:24;;;;;;;5.43;2.38;;;;;;;5.69;80.99;98621.34;4979497;28;20132;-82
2023/01/10 09:59:53;;;;;;;6.13;2.70;;;;;;;5.77;80.89;98618.81;4979203;28;20066;-82
2023/01/10 10:02:41;;;;;;;7.32;2.97;;;;;;;5.86;80.18;98625.66;4981123;28;20393;-82
2023/01/10 10:05:20;;;;;;;5.25;2.83;;;;;;;5.94;79.92;98617.09;4978384;28;20098;-82
2023/01/10 10:07:53;;;;;;;5.03;2.95;;;;;;;6.02;79.30;98611.94;4980840;28;20145;-83
2023/01/10 10:10:37;;;;;;;6.55;2.70;;;;;;;6.09;79.67;98626.75;4979964;28;20038;-83
2023/01/10 10:13:41;;;;;;;7.13;2.85;;;;;;;5.89;78.84;98635.78;4984006;28;20109;-82
2023/01/10 10:16:23;;;;;;;7.97;3.03;;;;;;;5.71;79.43;98640.25;4997375;28;20038;-82
2023/01/10 10:19:11;;;;;;;6.55;2.72;;;;;;;5.69;79.69;98644.78;4981743;28;20077;-82
2023/01/10 10:22:07;;;;;;;3.75;2.33;;;;;;;5.59;80.17;98637.09;4979129;28;20042;-82
2023/01/10 10:25:14;;;;;;;7.20;3.10;;;;;;;5.64;80.34;98648.69;4984047;28;20035;-82
2023/01/10 10:28:07;;;;;;;4.90;2.83;;;;;;;5.53;80.13;98640.31;4980459;28;20520;-82
2023/01/10 10:31:01;;;;;;;4.25;2.70;;;;;;;5.52;79.32;98660.31;4984164;28;20034;-82
2023/01/10 10:34:07;;;;;;;3.85;2.35;;;;;;;5.55;79.66;98649.59;4979777;28;20046;-82
2023/01/10 10:36:53;;;;;;;4.65;2.72;;;;;;;5.60;79.29;98647.34;4982910;28;20134;-82
2023/01/10 10:39:34;;;;;;;2.70;2.03;;;;;;;5.52;79.16;98656.91;4979579;28;20039;-82
2023/01/10 10:42:01;;;;;;;4.82;2.20;;;;;;;5.57;79.47;98652.03;4982544;28;20066;-83
2023/01/10 10:44:42;;;;;;;3.85;2.35;;;;;;;5.61;79.26;98654.19;4979141;28;20034;-82
2023/01/10 10:47:19;;;;;;;5.28;2.58;;;;;;;5.68;79.78;98656.16;4982983;28;20037;-82
2023/01/10 10:50:27;;;;;;;3.42;2.63;;;;;;;5.73;78.59;98665.13;4987437;28;20504;-83
2023/01/10 10:52:53;;;;;;;6.70;2.25;;;;;;;5.78;78.39;98654.28;4978820;28;20031;-82
2023/01/10 10:55:31;;;;;;;7.00;2.60;;;;;;;5.84;77.37;98664.06;4996677;28;20445;-83
2023/01/10 10:57:57;;;;;;;5.00;2.40;;;;;;;5.96;77.74;98662.84;4986130;28;20041;-83
2023/01/10 11:00:24;;;;;;;7.20;2.50;;;;;;;5.92;77.30;98666.72;4978895;28;20034;-83
2023/01/10 11:03:12;;;;;;;7.15;2.80;;;;;;;5.97;77.47;98656.66;4978897;28;20055;-83
2023/01/10 11:05:43;;;;;;;4.90;2.10;;;;;;;5.98;76.77;98653.09;4979344;28;20034;-83
2023/01/10 11:08:13;;;;;;;4.55;3.08;;;;;;;6.01;76.44;98658.00;4974388;28;20078;-83
2023/01/10 11:10:45;;;;;;;4.40;2.50;;;;;;;6.12;76.71;98657.72;4976969;28;20084;-82
2023/01/10 11:13:15;;;;;;;7.88;2.90;;;;;;;6.21;76.86;98665.53;4977174;28;20047;-82
2023/01/10 11:15:47;;;;;;;5.50;2.40;;;;;;;6.31;75.55;98667.06;4975335;28;20080;-83
2023/01/10 11:18:32;;;;;;;5.97;2.13;;;;;;;6.12;75.42;98657.72;4976959;28;20046;-82
2023/01/10 11:21:10;;;;;;;5.32;2.30;;;;;;;6.19;74.55;98667.50;4978812;28;20100;-83
2023/01/10 11:24:01;;;;;;;5.38;2.42;;;;;;;6.16;74.59;98674.63;4978857;28;20560;-82
2023/01/10 11:26:35;;;;;;;7.75;2.15;;;;;;;6.14;74.30;98679.19;4980117;28;20042;-82
2023/01/10 11:29:31;;;;;;;5.80;2.20;;;;;;;6.23;74.30;98684.44;4982274;28;20089;-82
2023/01/10 11:31:58;;;;;;;6.03;2.35;;;;;;;6.25;73.50;98692.91;4981166;28;20042;-82
2023/01/10 11:34:35;;;;;;;5.03;2.97;;;;;;;6.06;72.21;98679.19;4980763;28;20081;-83
2023/01/10 11:37:17;;;;;;;6.75;2.65;;;;;;;6.03;72.65;98665.63;4976170;28;20034;-83
2023/01/10 11:39:43;;;;;;;11.90;2.67;;;;;;;6.04;72.96;98656.84;4977095;28;20041;-83
2023/01/10 11:42:23;;;;;;;4.32;2.15;;;;;;;6.08;73.17;98651.19;4978423;28;20049;-83
2023/01/10 11:44:49;;;;;;;4.70;2.42;;;;;;;6.12;72.81;98665.53;4993143;28;20038;-82
2023/01/10 11:47:19;;;;;;;5.03;1.95;;;;;;;6.12;72.91;98657.72;4978919;28;20038;-82
2023/01/10 11:49:47;;;;;;;5.60;2.00;;;;;;;6.13;72.82;98671.53;4980243;28;20037;-83
2023/01/10 11:52:26;;;;;;;7.20;2.85;;;;;;;6.15;72.83;98661.78;4978192;28;20045;-82
2023/01/10 11:54:58;;;;;;;5.28;2.28;;;;;;;6.12;72.13;98670.72;4978102;28;20046;-82
2023/01/10 11:57:29;;;;;;;7.78;2.38;;;;;;;6.10;72.65;98677.88;4980332;28;20035;-82
2023/01/10 12:00:00;;;;;;;5.78;2.35;;;;;;;6.13;73.35;98669.75;4974035;28;20027;-82
2023/01/10 12:02:33;;;;;;;4.25;1.90;;;;;;;6.17;73.92;98665.84;4975234;28;20058;-82
2023/01/10 12:05:05;;;;;;;3.92;1.73;;;;;;;6.09;73.24;98680.63;4980799;28;20169;-83
2023/01/10 12:08:05;;;;;;;9.48;2.80;;;;;;;6.00;73.77;98705.84;4977585;28;20034;-82
2023/01/10 12:10:33;;;;;;;5.47;2.58;;;;;;;5.95;74.28;98684.66;4976848;28;20046;-83